sensor_id;sensor_type;location;lat;lon;timestamp;P1;durP1;ratioP1;P2;durP2;ratioP2
60979;SDS011;46851;49.160;8.980;2022-12-07T00:02:07;15.70;;;9.63;;
60979;SDS011;46851;49.160;8.980;2022-12-07T00:04:33;19.20;;;9.15;;
60979;SDS011;46851;49.160;8.980;2022-12-07T00:06:59;15.85;;;8.90;;
60979;SDS011;46851;49.160;8.980;2022-12-07T00:09:25;16.63;;;8.98;;
60979;SDS011;46851;49.160;8.980;2022-12-07T00:11:51;16.58;;;9.40;;
60979;SDS011;46851;49.160;8.980;2022-12-07T00:14:17;14.77;;;8.95;;
60979;SDS011;46851;49.160;8.980;2022-12-07T00:16:44;18.40;;;9.55;;
60979;SDS011;46851;49.160;8.980;2022-12-07T00:19:10;17.73;;;9.10;;
60979;SDS011;46851;49.160;8.980;2022-12-07T00:21:37;20.45;;;9.68;;
60979;SDS011;46851;49.160;8.980;2022-12-07T00:24:03;17.75;;;9.60;;
60979;SDS011;46851;49.160;8.980;2022-12-07T00:26:30;17.25;;;9.40;;
60979;SDS011;46851;49.160;8.980;2022-12-07T00:28:58;17.58;;;9.70;;
60979;SDS011;46851;49.160;8.980;2022-12-07T00:31:26;17.15;;;9.90;;
60979;SDS011;46851;49.160;8.980;2022-12-07T00:33:52;18.58;;;9.65;;
60979;SDS011;46851;49.160;8.980;2022-12-07T00:36:19;21.13;;;9.90;;
60979;SDS011;46851;49.160;8.980;2022-12-07T00:38:45;21.63;;;10.98;;
60979;SDS011;46851;49.160;8.980;2022-12-07T00:43:37;16.33;;;9.85;;
60979;SDS011;46851;49.160;8.980;2022-12-07T00:46:03;20.27;;;11.35;;
60979;SDS011;46851;49.160;8.980;2022-12-07T00:48:30;21.00;;;10.80;;
60979;SDS011;46851;49.160;8.980;2022-12-07T00:50:56;20.83;;;11.20;;
60979;SDS011;46851;49.160;8.980;2022-12-07T00:53:22;20.77;;;10.80;;
60979;SDS011;46851;49.160;8.980;2022-12-07T00:55:48;17.80;;;10.60;;
60979;SDS011;46851;49.160;8.980;2022-12-07T00:58:14;21.65;;;11.70;;
60979;SDS011;46851;49.160;8.980;2022-12-07T01:00:40;20.65;;;11.55;;
60979;SDS011;46851;49.160;8.980;2022-12-07T01:03:08;20.23;;;11.70;;
60979;SDS011;46851;49.160;8.980;2022-12-07T01:05:34;18.02;;;10.52;;
60979;SDS011;46851;49.160;8.980;2022-12-07T01:08:00;22.17;;;11.60;;
60979;SDS011;46851;49.160;8.980;2022-12-07T01:10:26;19.35;;;11.38;;
60979;SDS011;46851;49.160;8.980;2022-12-07T01:12:53;22.08;;;12.02;;
60979;SDS011;46851;49.160;8.980;2022-12-07T01:15:19;20.02;;;11.48;;
60979;SDS011;46851;49.160;8.980;2022-12-07T01:17:45;22.80;;;12.43;;
60979;SDS011;46851;49.160;8.980;2022-12-07T01:20:12;20.77;;;11.32;;
60979;SDS011;46851;49.160;8.980;2022-12-07T01:22:42;21.08;;;11.30;;
60979;SDS011;46851;49.160;8.980;2022-12-07T01:25:08;23.52;;;12.88;;
60979;SDS011;46851;49.160;8.980;2022-12-07T01:27:34;21.13;;;12.23;;
60979;SDS011;46851;49.160;8.980;2022-12-07T01:30:01;21.27;;;11.73;;
60979;SDS011;46851;49.160;8.980;2022-12-07T01:32:27;21.65;;;13.07;;
60979;SDS011;46851;49.160;8.980;2022-12-07T01:34:53;23.30;;;13.13;;
60979;SDS011;46851;49.160;8.980;2022-12-07T01:37:19;21.60;;;12.80;;
60979;SDS011;46851;49.160;8.980;2022-12-07T01:39:47;25.52;;;12.60;;
60979;SDS011;46851;49.160;8.980;2022-12-07T01:42:13;24.42;;;12.63;;
60979;SDS011;46851;49.160;8.980;2022-12-07T01:47:24;22.05;;;12.55;;
60979;SDS011;46851;49.160;8.980;2022-12-07T01:49:50;21.40;;;11.60;;
60979;SDS011;46851;49.160;8.980;2022-12-07T01:52:17;22.02;;;12.63;;
60979;SDS011;46851;49.160;8.980;2022-12-07T01:54:44;24.65;;;12.70;;
60979;SDS011;46851;49.160;8.980;2022-12-07T01:57:11;25.90;;;13.63;;
60979;SDS011;46851;49.160;8.980;2022-12-07T01:59:39;23.60;;;13.35;;
60979;SDS011;46851;49.160;8.980;2022-12-07T02:02:07;21.90;;;12.85;;
60979;SDS011;46851;49.160;8.980;2022-12-07T02:04:36;21.83;;;12.20;;
60979;SDS011;46851;49.160;8.980;2022-12-07T02:07:02;22.30;;;12.77;;
60979;SDS011;46851;49.160;8.980;2022-12-07T02:09:29;22.33;;;12.93;;
60979;SDS011;46851;49.160;8.980;2022-12-07T02:11:55;24.60;;;12.23;;
60979;SDS011;46851;49.160;8.980;2022-12-07T02:14:21;23.23;;;13.40;;
60979;SDS011;46851;49.160;8.980;2022-12-07T02:29:51;23.88;;;13.70;;
60979;SDS011;46851;49.160;8.980;2022-12-07T02:32:26;24.60;;;13.48;;
60979;SDS011;46851;49.160;8.980;2022-12-07T02:34:58;25.80;;;13.63;;
60979;SDS011;46851;49.160;8.980;2022-12-07T02:37:36;24.50;;;12.80;;
60979;SDS011;46851;49.160;8.980;2022-12-07T02:40:11;27.63;;;13.43;;
60979;SDS011;46851;49.160;8.980;2022-12-07T02:42:40;25.27;;;13.02;;
60979;SDS011;46851;49.160;8.980;2022-12-07T02:45:07;24.83;;;13.52;;
60979;SDS011;46851;49.160;8.980;2022-12-07T02:47:34;23.30;;;13.02;;
60979;SDS011;46851;49.160;8.980;2022-12-07T02:50:05;24.23;;;13.68;;
60979;SDS011;46851;49.160;8.980;2022-12-07T02:52:31;27.25;;;14.35;;
60979;SDS011;46851;49.160;8.980;2022-12-07T02:54:57;27.08;;;14.32;;
60979;SDS011;46851;49.160;8.980;2022-12-07T03:00:11;28.08;;;14.60;;
60979;SDS011;46851;49.160;8.980;2022-12-07T03:08:27;24.58;;;12.98;;
60979;SDS011;46851;49.160;8.980;2022-12-07T03:10:57;29.67;;;15.13;;
60979;SDS011;46851;49.160;8.980;2022-12-07T03:16:10;26.85;;;14.30;;
60979;SDS011;46851;49.160;8.980;2022-12-07T03:18:40;26.85;;;14.20;;
60979;SDS011;46851;49.160;8.980;2022-12-07T03:21:15;27.95;;;14.85;;
60979;SDS011;46851;49.160;8.980;2022-12-07T03:23:42;27.77;;;14.25;;
60979;SDS011;46851;49.160;8.980;2022-12-07T03:26:10;28.52;;;14.10;;
60979;SDS011;46851;49.160;8.980;2022-12-07T03:28:39;26.60;;;14.82;;
60979;SDS011;46851;49.160;8.980;2022-12-07T03:34:11;29.42;;;14.70;;
60979;SDS011;46851;49.160;8.980;2022-12-07T03:36:43;31.10;;;16.63;;
60979;SDS011;46851;49.160;8.980;2022-12-07T03:39:17;30.17;;;15.40;;
60979;SDS011;46851;49.160;8.980;2022-12-07T03:41:45;29.30;;;14.23;;
60979;SDS011;46851;49.160;8.980;2022-12-07T03:44:11;26.35;;;14.80;;
60979;SDS011;46851;49.160;8.980;2022-12-07T03:54:07;25.02;;;13.77;;
60979;SDS011;46851;49.160;8.980;2022-12-07T03:56:35;30.90;;;15.30;;
60979;SDS011;46851;49.160;8.980;2022-12-07T03:59:01;28.88;;;14.85;;
60979;SDS011;46851;49.160;8.980;2022-12-07T04:01:27;28.85;;;14.48;;
60979;SDS011;46851;49.160;8.980;2022-12-07T04:03:53;31.17;;;14.60;;
60979;SDS011;46851;49.160;8.980;2022-12-07T04:06:19;29.08;;;15.20;;
60979;SDS011;46851;49.160;8.980;2022-12-07T04:08:45;27.70;;;14.52;;
60979;SDS011;46851;49.160;8.980;2022-12-07T04:11:11;25.98;;;14.93;;
60979;SDS011;46851;49.160;8.980;2022-12-07T04:13:37;29.42;;;15.02;;
60979;SDS011;46851;49.160;8.980;2022-12-07T04:16:22;29.92;;;14.93;;
60979;SDS011;46851;49.160;8.980;2022-12-07T04:32:24;29.80;;;14.15;;
60979;SDS011;46851;49.160;8.980;2022-12-07T04:34:50;29.73;;;14.75;;
60979;SDS011;46851;49.160;8.980;2022-12-07T04:37:16;27.75;;;13.82;;
60979;SDS011;46851;49.160;8.980;2022-12-07T04:39:42;30.38;;;14.93;;
60979;SDS011;46851;49.160;8.980;2022-12-07T04:42:09;27.85;;;14.18;;
60979;SDS011;46851;49.160;8.980;2022-12-07T04:44:36;28.33;;;14.50;;
60979;SDS011;46851;49.160;8.980;2022-12-07T04:47:02;31.05;;;14.80;;
60979;SDS011;46851;49.160;8.980;2022-12-07T04:49:28;27.52;;;13.98;;
60979;SDS011;46851;49.160;8.980;2022-12-07T04:51:54;27.90;;;14.20;;
60979;SDS011;46851;49.160;8.980;2022-12-07T04:54:20;26.25;;;13.95;;
60979;SDS011;46851;49.160;8.980;2022-12-07T04:56:46;30.35;;;15.13;;
60979;SDS011;46851;49.160;8.980;2022-12-07T04:59:12;31.92;;;14.80;;
60979;SDS011;46851;49.160;8.980;2022-12-07T05:01:39;27.60;;;13.93;;
60979;SDS011;46851;49.160;8.980;2022-12-07T05:04:05;28.25;;;13.98;;
60979;SDS011;46851;49.160;8.980;2022-12-07T05:06:31;27.73;;;14.20;;
60979;SDS011;46851;49.160;8.980;2022-12-07T05:08:57;27.17;;;14.02;;
60979;SDS011;46851;49.160;8.980;2022-12-07T05:11:23;26.63;;;14.00;;
60979;SDS011;46851;49.160;8.980;2022-12-07T05:16:37;33.50;;;14.45;;
60979;SDS011;46851;49.160;8.980;2022-12-07T05:19:03;29.90;;;14.85;;
60979;SDS011;46851;49.160;8.980;2022-12-07T05:21:30;27.58;;;14.10;;
60979;SDS011;46851;49.160;8.980;2022-12-07T05:23:56;28.63;;;14.27;;
60979;SDS011;46851;49.160;8.980;2022-12-07T05:26:22;28.02;;;14.68;;
60979;SDS011;46851;49.160;8.980;2022-12-07T05:28:51;28.58;;;14.35;;
60979;SDS011;46851;49.160;8.980;2022-12-07T05:31:18;27.40;;;14.23;;
60979;SDS011;46851;49.160;8.980;2022-12-07T05:33:44;25.40;;;13.55;;
60979;SDS011;46851;49.160;8.980;2022-12-07T05:36:10;28.52;;;14.50;;
60979;SDS011;46851;49.160;8.980;2022-12-07T05:38:36;30.75;;;15.82;;
60979;SDS011;46851;49.160;8.980;2022-12-07T05:41:02;29.92;;;15.43;;
60979;SDS011;46851;49.160;8.980;2022-12-07T05:43:29;28.05;;;13.38;;
60979;SDS011;46851;49.160;8.980;2022-12-07T05:45:55;29.70;;;14.40;;
60979;SDS011;46851;49.160;8.980;2022-12-07T05:48:21;29.35;;;14.35;;
60979;SDS011;46851;49.160;8.980;2022-12-07T05:50:48;30.73;;;14.13;;
60979;SDS011;46851;49.160;8.980;2022-12-07T05:53:14;28.55;;;15.13;;
60979;SDS011;46851;49.160;8.980;2022-12-07T05:55:40;32.08;;;15.15;;
60979;SDS011;46851;49.160;8.980;2022-12-07T05:58:06;33.97;;;16.02;;
60979;SDS011;46851;49.160;8.980;2022-12-07T06:00:51;35.53;;;16.58;;
60979;SDS011;46851;49.160;8.980;2022-12-07T06:03:17;40.00;;;17.33;;
60979;SDS011;46851;49.160;8.980;2022-12-07T06:05:43;38.03;;;16.50;;
60979;SDS011;46851;49.160;8.980;2022-12-07T06:08:09;45.85;;;18.25;;
60979;SDS011;46851;49.160;8.980;2022-12-07T06:10:35;33.72;;;15.35;;
60979;SDS011;46851;49.160;8.980;2022-12-07T06:13:00;36.35;;;15.88;;
60979;SDS011;46851;49.160;8.980;2022-12-07T06:15:26;27.90;;;14.57;;
60979;SDS011;46851;49.160;8.980;2022-12-07T06:17:52;30.67;;;15.35;;
60979;SDS011;46851;49.160;8.980;2022-12-07T06:20:18;32.47;;;15.75;;
60979;SDS011;46851;49.160;8.980;2022-12-07T06:22:44;30.73;;;13.32;;
60979;SDS011;46851;49.160;8.980;2022-12-07T06:25:11;26.30;;;13.43;;
60979;SDS011;46851;49.160;8.980;2022-12-07T06:27:37;27.83;;;13.15;;
60979;SDS011;46851;49.160;8.980;2022-12-07T06:30:03;25.67;;;13.27;;
60979;SDS011;46851;49.160;8.980;2022-12-07T06:32:32;30.25;;;14.35;;
60979;SDS011;46851;49.160;8.980;2022-12-07T06:34:59;36.97;;;16.63;;
60979;SDS011;46851;49.160;8.980;2022-12-07T06:37:25;39.65;;;15.73;;
60979;SDS011;46851;49.160;8.980;2022-12-07T06:39:51;50.58;;;17.98;;
60979;SDS011;46851;49.160;8.980;2022-12-07T06:42:17;46.28;;;16.70;;
60979;SDS011;46851;49.160;8.980;2022-12-07T06:44:43;46.38;;;16.10;;
60979;SDS011;46851;49.160;8.980;2022-12-07T06:47:09;36.35;;;15.23;;
60979;SDS011;46851;49.160;8.980;2022-12-07T06:49:36;50.20;;;17.67;;
60979;SDS011;46851;49.160;8.980;2022-12-07T06:52:02;53.15;;;16.98;;
60979;SDS011;46851;49.160;8.980;2022-12-07T06:54:29;44.13;;;17.17;;
60979;SDS011;46851;49.160;8.980;2022-12-07T06:56:56;43.55;;;16.63;;
60979;SDS011;46851;49.160;8.980;2022-12-07T06:59:22;44.72;;;16.38;;
60979;SDS011;46851;49.160;8.980;2022-12-07T07:01:48;40.85;;;16.10;;
60979;SDS011;46851;49.160;8.980;2022-12-07T07:04:14;41.03;;;16.27;;
60979;SDS011;46851;49.160;8.980;2022-12-07T07:06:40;35.65;;;15.15;;
60979;SDS011;46851;49.160;8.980;2022-12-07T07:09:06;39.42;;;16.25;;
60979;SDS011;46851;49.160;8.980;2022-12-07T07:11:34;35.30;;;15.85;;
60979;SDS011;46851;49.160;8.980;2022-12-07T07:14:00;43.40;;;16.70;;
60979;SDS011;46851;49.160;8.980;2022-12-07T07:16:27;42.28;;;16.02;;
60979;SDS011;46851;49.160;8.980;2022-12-07T07:18:54;30.75;;;13.75;;
60979;SDS011;46851;49.160;8.980;2022-12-07T07:21:20;28.98;;;12.95;;
60979;SDS011;46851;49.160;8.980;2022-12-07T07:23:46;28.58;;;14.02;;
60979;SDS011;46851;49.160;8.980;2022-12-07T07:26:12;30.38;;;13.70;;
60979;SDS011;46851;49.160;8.980;2022-12-07T07:28:38;25.55;;;13.50;;
60979;SDS011;46851;49.160;8.980;2022-12-07T07:31:04;27.15;;;12.73;;
60979;SDS011;46851;49.160;8.980;2022-12-07T07:33:30;24.60;;;13.30;;
60979;SDS011;46851;49.160;8.980;2022-12-07T07:35:56;26.30;;;13.07;;
60979;SDS011;46851;49.160;8.980;2022-12-07T07:38:23;24.70;;;13.27;;
60979;SDS011;46851;49.160;8.980;2022-12-07T07:40:49;28.15;;;13.48;;
60979;SDS011;46851;49.160;8.980;2022-12-07T07:43:15;23.65;;;13.02;;
60979;SDS011;46851;49.160;8.980;2022-12-07T07:45:41;24.00;;;11.95;;
60979;SDS011;46851;49.160;8.980;2022-12-07T07:48:07;26.58;;;13.85;;
60979;SDS011;46851;49.160;8.980;2022-12-07T07:50:33;27.65;;;13.52;;
60979;SDS011;46851;49.160;8.980;2022-12-07T07:52:59;29.25;;;14.00;;
60979;SDS011;46851;49.160;8.980;2022-12-07T07:55:25;24.52;;;12.57;;
60979;SDS011;46851;49.160;8.980;2022-12-07T08:04:04;26.35;;;12.07;;
60979;SDS011;46851;49.160;8.980;2022-12-07T08:06:30;23.83;;;12.30;;
60979;SDS011;46851;49.160;8.980;2022-12-07T08:08:56;28.38;;;13.52;;
60979;SDS011;46851;49.160;8.980;2022-12-07T08:11:26;27.25;;;12.65;;
60979;SDS011;46851;49.160;8.980;2022-12-07T08:13:52;27.98;;;12.60;;
60979;SDS011;46851;49.160;8.980;2022-12-07T08:16:18;32.58;;;13.05;;
60979;SDS011;46851;49.160;8.980;2022-12-07T08:18:44;25.92;;;13.25;;
60979;SDS011;46851;49.160;8.980;2022-12-07T08:29:58;24.30;;;12.60;;
60979;SDS011;46851;49.160;8.980;2022-12-07T08:34:52;23.42;;;12.25;;
60979;SDS011;46851;49.160;8.980;2022-12-07T08:37:19;20.75;;;11.68;;
60979;SDS011;46851;49.160;8.980;2022-12-07T08:39:45;24.75;;;11.95;;
60979;SDS011;46851;49.160;8.980;2022-12-07T08:42:11;26.80;;;12.93;;
60979;SDS011;46851;49.160;8.980;2022-12-07T08:44:37;24.17;;;12.15;;
60979;SDS011;46851;49.160;8.980;2022-12-07T08:47:05;22.60;;;10.85;;
60979;SDS011;46851;49.160;8.980;2022-12-07T08:49:36;20.98;;;11.15;;
60979;SDS011;46851;49.160;8.980;2022-12-07T08:52:04;19.00;;;10.88;;
60979;SDS011;46851;49.160;8.980;2022-12-07T08:54:30;22.20;;;11.20;;
60979;SDS011;46851;49.160;8.980;2022-12-07T08:56:58;20.42;;;11.15;;
60979;SDS011;46851;49.160;8.980;2022-12-07T08:59:24;18.42;;;10.43;;
60979;SDS011;46851;49.160;8.980;2022-12-07T09:01:51;20.10;;;10.27;;
60979;SDS011;46851;49.160;8.980;2022-12-07T09:04:17;19.55;;;10.32;;
60979;SDS011;46851;49.160;8.980;2022-12-07T09:06:43;20.02;;;10.40;;
60979;SDS011;46851;49.160;8.980;2022-12-07T09:09:09;18.98;;;10.23;;
60979;SDS011;46851;49.160;8.980;2022-12-07T09:11:36;23.33;;;10.30;;
60979;SDS011;46851;49.160;8.980;2022-12-07T09:14:02;19.92;;;10.98;;
60979;SDS011;46851;49.160;8.980;2022-12-07T09:16:28;19.75;;;10.68;;
60979;SDS011;46851;49.160;8.980;2022-12-07T09:18:54;20.90;;;11.20;;
60979;SDS011;46851;49.160;8.980;2022-12-07T09:21:20;24.15;;;9.77;;
60979;SDS011;46851;49.160;8.980;2022-12-07T09:23:46;16.52;;;9.27;;
60979;SDS011;46851;49.160;8.980;2022-12-07T09:26:12;25.67;;;9.90;;
60979;SDS011;46851;49.160;8.980;2022-12-07T09:28:38;21.23;;;10.13;;
60979;SDS011;46851;49.160;8.980;2022-12-07T09:31:05;18.65;;;9.98;;
60979;SDS011;46851;49.160;8.980;2022-12-07T09:33:31;19.85;;;9.70;;
60979;SDS011;46851;49.160;8.980;2022-12-07T09:35:57;18.27;;;10.00;;
60979;SDS011;46851;49.160;8.980;2022-12-07T09:38:24;22.00;;;9.80;;
60979;SDS011;46851;49.160;8.980;2022-12-07T09:40:51;15.63;;;9.05;;
60979;SDS011;46851;49.160;8.980;2022-12-07T09:43:19;17.42;;;9.02;;
60979;SDS011;46851;49.160;8.980;2022-12-07T09:45:46;14.82;;;8.60;;
60979;SDS011;46851;49.160;8.980;2022-12-07T09:48:17;14.23;;;8.38;;
60979;SDS011;46851;49.160;8.980;2022-12-07T09:50:44;13.05;;;7.68;;
60979;SDS011;46851;49.160;8.980;2022-12-07T09:56:15;16.60;;;8.23;;
60979;SDS011;46851;49.160;8.980;2022-12-07T09:58:42;15.52;;;8.60;;
60979;SDS011;46851;49.160;8.980;2022-12-07T10:03:36;12.65;;;7.25;;
60979;SDS011;46851;49.160;8.980;2022-12-07T10:06:03;15.80;;;7.07;;
60979;SDS011;46851;49.160;8.980;2022-12-07T10:08:30;20.50;;;9.00;;
60979;SDS011;46851;49.160;8.980;2022-12-07T10:10:57;23.60;;;9.15;;
60979;SDS011;46851;49.160;8.980;2022-12-07T10:16:04;16.60;;;9.18;;
60979;SDS011;46851;49.160;8.980;2022-12-07T10:24:02;16.27;;;8.20;;
60979;SDS011;46851;49.160;8.980;2022-12-07T10:26:30;20.30;;;9.02;;
60979;SDS011;46851;49.160;8.980;2022-12-07T10:29:42;14.68;;;8.70;;
60979;SDS011;46851;49.160;8.980;2022-12-07T10:31:43;17.23;;;9.07;;
60979;SDS011;46851;49.160;8.980;2022-12-07T10:34:26;14.27;;;8.30;;
60979;SDS011;46851;49.160;8.980;2022-12-07T10:36:55;22.95;;;10.23;;
60979;SDS011;46851;49.160;8.980;2022-12-07T10:39:39;22.65;;;10.65;;
60979;SDS011;46851;49.160;8.980;2022-12-07T10:42:08;18.38;;;10.00;;
60979;SDS011;46851;49.160;8.980;2022-12-07T10:44:39;20.17;;;9.23;;
60979;SDS011;46851;49.160;8.980;2022-12-07T10:49:55;15.38;;;8.90;;
60979;SDS011;46851;49.160;8.980;2022-12-07T10:55:03;36.60;;;13.40;;
60979;SDS011;46851;49.160;8.980;2022-12-07T10:57:37;16.33;;;9.30;;
60979;SDS011;46851;49.160;8.980;2022-12-07T11:00:12;19.42;;;10.27;;
60979;SDS011;46851;49.160;8.980;2022-12-07T11:10:41;18.88;;;9.90;;
60979;SDS011;46851;49.160;8.980;2022-12-07T11:13:14;18.13;;;10.55;;
60979;SDS011;46851;49.160;8.980;2022-12-07T11:23:32;19.33;;;10.53;;
60979;SDS011;46851;49.160;8.980;2022-12-07T11:31:08;19.17;;;9.32;;
60979;SDS011;46851;49.160;8.980;2022-12-07T11:33:43;16.08;;;9.55;;
60979;SDS011;46851;49.160;8.980;2022-12-07T11:41:16;23.02;;;9.90;;
60979;SDS011;46851;49.160;8.980;2022-12-07T11:43:50;16.33;;;8.73;;
60979;SDS011;46851;49.160;8.980;2022-12-07T11:46:18;20.20;;;9.95;;
60979;SDS011;46851;49.160;8.980;2022-12-07T11:51:23;21.70;;;10.10;;
60979;SDS011;46851;49.160;8.980;2022-12-07T11:53:54;17.30;;;10.13;;
60979;SDS011;46851;49.160;8.980;2022-12-07T11:56:23;18.38;;;10.15;;
60979;SDS011;46851;49.160;8.980;2022-12-07T11:59:10;23.90;;;10.10;;
60979;SDS011;46851;49.160;8.980;2022-12-07T12:06:39;41.75;;;11.60;;
60979;SDS011;46851;49.160;8.980;2022-12-07T12:09:16;26.88;;;11.45;;
60979;SDS011;46851;49.160;8.980;2022-12-07T12:14:39;20.15;;;9.75;;
60979;SDS011;46851;49.160;8.980;2022-12-07T12:22:41;23.63;;;10.00;;
60979;SDS011;46851;49.160;8.980;2022-12-07T12:25:15;24.50;;;11.40;;
60979;SDS011;46851;49.160;8.980;2022-12-07T12:27:45;23.88;;;10.40;;
60979;SDS011;46851;49.160;8.980;2022-12-07T12:30:46;22.13;;;9.38;;
60979;SDS011;46851;49.160;8.980;2022-12-07T12:33:06;21.27;;;9.68;;
60979;SDS011;46851;49.160;8.980;2022-12-07T12:35:38;22.27;;;10.73;;
60979;SDS011;46851;49.160;8.980;2022-12-07T12:40:49;25.48;;;10.73;;
60979;SDS011;46851;49.160;8.980;2022-12-07T12:51:42;30.90;;;13.18;;
60979;SDS011;46851;49.160;8.980;2022-12-07T12:57:30;18.52;;;9.18;;
60979;SDS011;46851;49.160;8.980;2022-12-07T12:59:30;21.23;;;10.48;;
60979;SDS011;46851;49.160;8.980;2022-12-07T13:04:52;21.35;;;10.13;;
60979;SDS011;46851;49.160;8.980;2022-12-07T13:10:03;22.73;;;10.45;;
60979;SDS011;46851;49.160;8.980;2022-12-07T13:12:29;22.85;;;10.90;;
60979;SDS011;46851;49.160;8.980;2022-12-07T13:14:57;21.98;;;10.65;;
60979;SDS011;46851;49.160;8.980;2022-12-07T13:20:05;32.90;;;10.25;;
60979;SDS011;46851;49.160;8.980;2022-12-07T13:25:05;23.52;;;10.55;;
60979;SDS011;46851;49.160;8.980;2022-12-07T13:27:33;28.25;;;11.77;;
60979;SDS011;46851;49.160;8.980;2022-12-07T13:30:00;30.10;;;10.63;;
60979;SDS011;46851;49.160;8.980;2022-12-07T13:32:28;22.55;;;10.65;;
60979;SDS011;46851;49.160;8.980;2022-12-07T13:34:54;22.42;;;10.50;;
60979;SDS011;46851;49.160;8.980;2022-12-07T13:37:25;19.90;;;10.07;;
60979;SDS011;46851;49.160;8.980;2022-12-07T13:42:25;31.02;;;11.98;;
60979;SDS011;46851;49.160;8.980;2022-12-07T13:44:52;27.70;;;12.52;;
60979;SDS011;46851;49.160;8.980;2022-12-07T13:49:48;46.38;;;14.65;;
60979;SDS011;46851;49.160;8.980;2022-12-07T13:52:22;38.25;;;13.00;;
60979;SDS011;46851;49.160;8.980;2022-12-07T13:54:49;42.22;;;12.95;;
60979;SDS011;46851;49.160;8.980;2022-12-07T13:57:20;24.08;;;10.70;;
60979;SDS011;46851;49.160;8.980;2022-12-07T13:59:47;31.65;;;12.32;;
60979;SDS011;46851;49.160;8.980;2022-12-07T14:02:20;23.33;;;11.00;;
60979;SDS011;46851;49.160;8.980;2022-12-07T14:04:48;25.20;;;11.52;;
60979;SDS011;46851;49.160;8.980;2022-12-07T14:09:57;23.92;;;10.45;;
60979;SDS011;46851;49.160;8.980;2022-12-07T14:12:24;19.48;;;11.05;;
60979;SDS011;46851;49.160;8.980;2022-12-07T14:14:50;22.85;;;11.07;;
60979;SDS011;46851;49.160;8.980;2022-12-07T14:17:18;37.97;;;11.77;;
60979;SDS011;46851;49.160;8.980;2022-12-07T14:22:37;58.25;;;13.95;;
60979;SDS011;46851;49.160;8.980;2022-12-07T14:27:39;21.08;;;10.10;;
60979;SDS011;46851;49.160;8.980;2022-12-07T14:30:05;23.45;;;11.25;;
60979;SDS011;46851;49.160;8.980;2022-12-07T14:32:32;23.77;;;10.68;;
60979;SDS011;46851;49.160;8.980;2022-12-07T14:37:27;23.73;;;11.55;;
60979;SDS011;46851;49.160;8.980;2022-12-07T14:39:53;23.52;;;11.98;;
60979;SDS011;46851;49.160;8.980;2022-12-07T14:42:19;27.00;;;12.88;;
60979;SDS011;46851;49.160;8.980;2022-12-07T14:44:45;23.83;;;11.35;;
60979;SDS011;46851;49.160;8.980;2022-12-07T14:47:12;23.40;;;10.93;;
60979;SDS011;46851;49.160;8.980;2022-12-07T14:49:38;21.70;;;11.15;;
60979;SDS011;46851;49.160;8.980;2022-12-07T14:52:04;23.52;;;11.00;;
60979;SDS011;46851;49.160;8.980;2022-12-07T14:54:31;29.38;;;11.88;;
60979;SDS011;46851;49.160;8.980;2022-12-07T14:56:58;25.95;;;11.07;;
60979;SDS011;46851;49.160;8.980;2022-12-07T14:59:24;22.25;;;10.77;;
60979;SDS011;46851;49.160;8.980;2022-12-07T15:01:50;22.08;;;11.02;;
60979;SDS011;46851;49.160;8.980;2022-12-07T15:04:16;20.08;;;10.65;;
60979;SDS011;46851;49.160;8.980;2022-12-07T15:06:48;31.65;;;11.90;;
60979;SDS011;46851;49.160;8.980;2022-12-07T15:09:19;24.33;;;12.45;;
60979;SDS011;46851;49.160;8.980;2022-12-07T15:11:45;23.23;;;11.68;;
60979;SDS011;46851;49.160;8.980;2022-12-07T15:14:11;25.38;;;10.98;;
60979;SDS011;46851;49.160;8.980;2022-12-07T15:16:38;24.27;;;13.05;;
60979;SDS011;46851;49.160;8.980;2022-12-07T15:19:05;25.63;;;12.18;;
60979;SDS011;46851;49.160;8.980;2022-12-07T15:21:31;24.38;;;11.80;;
60979;SDS011;46851;49.160;8.980;2022-12-07T15:23:57;31.48;;;13.00;;
60979;SDS011;46851;49.160;8.980;2022-12-07T15:26:23;24.50;;;12.25;;
60979;SDS011;46851;49.160;8.980;2022-12-07T15:28:49;23.27;;;12.65;;
60979;SDS011;46851;49.160;8.980;2022-12-07T15:31:16;23.17;;;13.02;;
60979;SDS011;46851;49.160;8.980;2022-12-07T15:33:43;25.33;;;13.52;;
60979;SDS011;46851;49.160;8.980;2022-12-07T15:36:16;28.30;;;14.25;;
60979;SDS011;46851;49.160;8.980;2022-12-07T15:38:43;25.10;;;13.98;;
60979;SDS011;46851;49.160;8.980;2022-12-07T15:41:09;24.33;;;13.73;;
60979;SDS011;46851;49.160;8.980;2022-12-07T15:43:35;26.83;;;13.48;;
60979;SDS011;46851;49.160;8.980;2022-12-07T15:46:20;26.35;;;13.88;;
60979;SDS011;46851;49.160;8.980;2022-12-07T15:48:46;24.00;;;13.75;;
60979;SDS011;46851;49.160;8.980;2022-12-07T15:51:12;26.70;;;14.65;;
60979;SDS011;46851;49.160;8.980;2022-12-07T15:53:38;29.92;;;14.77;;
60979;SDS011;46851;49.160;8.980;2022-12-07T15:56:06;26.75;;;14.38;;
60979;SDS011;46851;49.160;8.980;2022-12-07T15:58:32;30.02;;;14.73;;
60979;SDS011;46851;49.160;8.980;2022-12-07T16:00:58;34.80;;;14.80;;
60979;SDS011;46851;49.160;8.980;2022-12-07T16:03:24;30.33;;;14.75;;
60979;SDS011;46851;49.160;8.980;2022-12-07T16:05:52;34.63;;;15.50;;
60979;SDS011;46851;49.160;8.980;2022-12-07T16:08:18;28.08;;;14.35;;
60979;SDS011;46851;49.160;8.980;2022-12-07T16:10:45;28.67;;;14.90;;
60979;SDS011;46851;49.160;8.980;2022-12-07T16:13:11;29.88;;;14.95;;
60979;SDS011;46851;49.160;8.980;2022-12-07T16:15:41;32.47;;;14.93;;
60979;SDS011;46851;49.160;8.980;2022-12-07T16:18:08;30.90;;;14.80;;
60979;SDS011;46851;49.160;8.980;2022-12-07T16:20:34;30.17;;;14.50;;
60979;SDS011;46851;49.160;8.980;2022-12-07T16:23:00;30.85;;;15.70;;
60979;SDS011;46851;49.160;8.980;2022-12-07T16:25:27;28.05;;;14.93;;
60979;SDS011;46851;49.160;8.980;2022-12-07T16:27:53;27.50;;;15.10;;
60979;SDS011;46851;49.160;8.980;2022-12-07T16:30:19;31.00;;;15.80;;
60979;SDS011;46851;49.160;8.980;2022-12-07T16:32:45;26.83;;;14.68;;
60979;SDS011;46851;49.160;8.980;2022-12-07T16:35:11;30.65;;;14.77;;
60979;SDS011;46851;49.160;8.980;2022-12-07T16:37:38;29.38;;;15.70;;
60979;SDS011;46851;49.160;8.980;2022-12-07T16:40:04;34.72;;;15.20;;
60979;SDS011;46851;49.160;8.980;2022-12-07T16:42:33;37.60;;;19.55;;
60979;SDS011;46851;49.160;8.980;2022-12-07T16:44:59;37.55;;;19.55;;
60979;SDS011;46851;49.160;8.980;2022-12-07T16:47:25;38.03;;;19.92;;
60979;SDS011;46851;49.160;8.980;2022-12-07T16:49:51;38.60;;;19.75;;
60979;SDS011;46851;49.160;8.980;2022-12-07T16:52:18;32.92;;;17.60;;
60979;SDS011;46851;49.160;8.980;2022-12-07T16:54:44;28.88;;;15.80;;
60979;SDS011;46851;49.160;8.980;2022-12-07T16:57:10;30.60;;;16.48;;
60979;SDS011;46851;49.160;8.980;2022-12-07T16:59:36;34.67;;;19.02;;
60979;SDS011;46851;49.160;8.980;2022-12-07T17:02:02;32.88;;;18.55;;
60979;SDS011;46851;49.160;8.980;2022-12-07T17:04:29;41.33;;;22.15;;
60979;SDS011;46851;49.160;8.980;2022-12-07T17:06:55;46.42;;;24.40;;
60979;SDS011;46851;49.160;8.980;2022-12-07T17:09:21;40.08;;;21.80;;
60979;SDS011;46851;49.160;8.980;2022-12-07T17:11:47;34.78;;;20.23;;
60979;SDS011;46851;49.160;8.980;2022-12-07T17:14:13;31.85;;;16.73;;
60979;SDS011;46851;49.160;8.980;2022-12-07T17:16:57;41.40;;;21.23;;
60979;SDS011;46851;49.160;8.980;2022-12-07T17:19:23;38.53;;;20.75;;
60979;SDS011;46851;49.160;8.980;2022-12-07T17:21:50;35.90;;;19.90;;